Time;durP1;ratioP1;P1;durP2;ratioP2;P2;SDS_P1;SDS_P2;PMS_P1;PMS_P2;Temp;Humidity;BMP_temperature;BMP_pressure;BME280_temperature;BME280_humidity;BME280_pressure;Samples;Min_cycle;Max_cycle;Signal;HPM_P1;HPM_P2
2023/05/15 00:01:39;;;;;;;11.17;4.60;;;;;;;15.14;43.68;100790.95;124248;1099;104197;-77
2023/05/15 00:04:08;;;;;;;11.07;4.40;;;;;;;15.13;44.01;100793.56;124314;1099;104194;-77
2023/05/15 00:06:37;;;;;;;10.60;4.63;;;;;;;15.09;43.39;100798.78;123837;1099;104251;-78
2023/05/15 00:09:05;;;;;;;8.50;4.70;;;;;;;15.06;43.55;100798.71;123944;1099;104197;-77
2023/05/15 00:11:34;;;;;;;11.83;4.47;;;;;;;15.06;43.36;100792.55;123905;1099;104345;-76
2023/05/15 00:14:03;;;;;;;10.57;4.73;;;;;;;15.05;43.52;100796.03;123830;1099;104752;-77
2023/05/15 00:16:31;;;;;;;11.50;4.70;;;;;;;15.03;43.49;100796.00;123967;1099;104258;-78
2023/05/15 00:19:00;;;;;;;11.33;4.70;;;;;;;15.03;44.00;100793.36;123763;1099;104322;-76
2023/05/15 00:21:28;;;;;;;8.93;4.70;;;;;;;15.01;44.59;100789.80;124114;1099;104178;-76
2023/05/15 00:23:57;;;;;;;13.87;5.20;;;;;;;15.00;44.01;100793.29;123921;1099;104317;-77
2023/05/15 00:26:25;;;;;;;11.53;5.00;;;;;;;14.97;43.95;100795.86;123959;1099;104399;-77
2023/05/15 00:28:54;;;;;;;12.13;5.03;;;;;;;14.95;44.77;100796.70;123615;1099;104242;-76
2023/05/15 00:31:22;;;;;;;10.80;5.00;;;;;;;14.94;44.91;100800.20;124093;1098;104281;-76
2023/05/15 00:33:51;;;;;;;9.57;5.40;;;;;;;14.94;45.17;100809.00;123631;1099;104274;-77
2023/05/15 00:36:20;;;;;;;15.40;5.40;;;;;;;14.94;44.79;100808.12;123846;1099;104225;-75
2023/05/15 00:38:49;;;;;;;10.40;5.05;;;;;;;14.95;45.27;100805.52;123517;1099;104389;-75
2023/05/15 00:41:20;;;;;;;10.63;4.93;;;;;;;14.92;45.07;100801.05;123552;1102;104246;-75
2023/05/15 00:43:50;;;;;;;13.70;4.83;;;;;;;14.90;45.57;100802.77;123963;1098;104217;-75
2023/05/15 00:46:21;;;;;;;8.97;4.73;;;;;;;14.92;45.56;100808.09;123780;1099;104236;-76
2023/05/15 00:48:51;;;;;;;10.57;4.77;;;;;;;14.91;44.71;100808.94;123830;1099;117860;-77
2023/05/15 00:51:19;;;;;;;11.17;5.60;;;;;;;14.89;45.59;100811.54;123604;1099;104363;-77
2023/05/15 00:53:49;;;;;;;12.13;5.37;;;;;;;14.90;45.84;100818.62;123868;1099;104315;-76
2023/05/15 00:56:18;;;;;;;11.97;5.73;;;;;;;14.91;44.92;100811.58;123963;1099;104274;-75
2023/05/15 00:58:48;;;;;;;12.47;5.23;;;;;;;14.91;45.25;100808.94;124109;1098;104271;-76
2023/05/15 01:01:17;;;;;;;12.43;5.37;;;;;;;14.89;45.16;100811.54;123929;1099;104300;-76
2023/05/15 01:03:46;;;;;;;14.47;5.63;;;;;;;14.89;45.82;100805.38;123907;1099;104298;-76
2023/05/15 01:06:14;;;;;;;13.97;5.50;;;;;;;14.88;46.31;100806.22;124064;1099;104191;-76
2023/05/15 01:08:45;;;;;;;12.03;5.10;;;;;;;14.89;45.84;100802.73;123864;1099;104238;-76
2023/05/15 01:11:16;;;;;;;13.10;5.80;;;;;;;14.89;45.85;100800.97;124013;1098;104313;-76
2023/05/15 01:13:44;;;;;;;14.30;5.80;;;;;;;14.91;45.65;100799.28;124122;1098;104357;-77
2023/05/15 01:16:13;;;;;;;11.47;5.73;;;;;;;14.93;46.44;100791.39;124149;1099;104192;-77
2023/05/15 01:18:41;;;;;;;13.77;5.90;;;;;;;14.94;46.25;100793.16;123840;1099;103928;-76
2023/05/15 01:21:40;;;;;;;9.90;5.37;;;;;;;14.93;46.78;100786.11;124073;1099;104303;-76
2023/05/15 01:24:31;;;;;;;9.95;5.10;;;;;;;14.92;46.55;100781.67;124244;1099;104696;-76
2023/05/15 01:27:22;;;;;;;11.23;5.90;;;;;;;14.88;46.07;100783.36;123992;1099;104354;-76
2023/05/15 01:29:59;;;;;;;15.80;6.03;;;;;;;14.85;46.34;100791.22;123662;1099;108109;-76
2023/05/15 01:32:33;;;;;;;16.23;6.43;;;;;;;14.86;46.45;100789.45;123902;1099;104201;-76
2023/05/15 01:35:12;;;;;;;14.20;6.30;;;;;;;14.89;46.95;100789.52;123644;1099;104270;-76
2023/05/15 01:37:44;;;;;;;14.17;6.10;;;;;;;14.91;46.63;100798.36;124050;1098;104242;-76
2023/05/15 01:40:15;;;;;;;14.17;6.33;;;;;;;14.92;46.70;100794.88;123527;1099;104320;-76
2023/05/15 01:42:53;;;;;;;13.60;5.77;;;;;;;14.92;47.29;100794.88;123878;1099;104389;-77
2023/05/15 01:45:24;;;;;;;12.67;6.37;;;;;;;14.93;46.54;100801.95;124085;1099;104265;-78
2023/05/15 01:47:55;;;;;;;13.33;6.37;;;;;;;14.93;46.58;100804.60;124261;1098;104316;-78
2023/05/15 01:50:26;;;;;;;16.30;5.67;;;;;;;14.92;46.90;100808.97;124106;1099;104316;-77
2023/05/15 01:52:57;;;;;;;13.60;6.00;;;;;;;14.90;47.25;100805.41;124167;1099;104235;-78
2023/05/15 01:55:28;;;;;;;12.43;6.33;;;;;;;14.88;47.80;100798.30;124113;1099;104262;-77
2023/05/15 01:58:00;;;;;;;14.07;5.90;;;;;;;14.88;46.98;100798.30;124207;1098;104313;-78
2023/05/15 02:00:32;;;;;;;12.90;6.27;;;;;;;14.89;47.22;100797.45;124169;1099;110346;-78
2023/05/15 02:03:01;;;;;;;14.37;5.60;;;;;;;14.89;48.02;100794.81;123875;1099;104315;-78
2023/05/15 02:05:30;;;;;;;12.40;5.50;;;;;;;14.91;47.82;100795.72;124054;1099;104334;-76
2023/05/15 02:08:00;;;;;;;9.30;5.27;;;;;;;14.92;47.07;100793.12;123882;1099;104363;-77
2023/05/15 02:10:29;;;;;;;15.20;5.73;;;;;;;14.92;47.75;100779.91;123921;1099;104265;-78
2023/05/15 02:12:59;;;;;;;13.43;5.63;;;;;;;14.92;47.24;100779.03;124026;1099;104270;-77
2023/05/15 02:15:29;;;;;;;17.43;6.33;;;;;;;14.86;47.75;100773.60;123927;1099;104354;-77
2023/05/15 02:17:59;;;;;;;16.67;5.67;;;;;;;14.82;48.48;100770.01;124249;1099;104271;-77
2023/05/15 02:20:28;;;;;;;12.57;5.43;;;;;;;14.81;47.84;100775.26;123755;1099;104902;-77
2023/05/15 02:22:56;;;;;;;11.65;5.80;;;;;;;14.80;47.70;100779.63;123914;1099;104312;-77
2023/05/15 02:25:34;;;;;;;13.57;6.03;;;;;;;14.81;48.45;100775.26;124008;1099;104219;-78
2023/05/15 02:28:10;;;;;;;15.97;6.83;;;;;;;14.80;48.61;100776.98;123815;1099;104254;-77
2023/05/15 02:30:54;;;;;;;14.57;6.07;;;;;;;14.74;47.59;100767.19;123919;1099;104317;-77
2023/05/15 02:33:31;;;;;;;19.10;5.77;;;;;;;14.71;47.79;100774.16;123928;1099;104456;-77
2023/05/15 02:36:06;;;;;;;13.07;5.47;;;;;;;14.69;48.26;100773.21;124052;1099;104322;-78
2023/05/15 02:38:38;;;;;;;13.03;5.13;;;;;;;14.67;48.50;100772.30;123870;1098;104283;-78
2023/05/15 02:41:09;;;;;;;12.10;5.23;;;;;;;14.66;48.14;100775.78;124034;1099;104264;-77
2023/05/15 02:43:39;;;;;;;12.80;5.13;;;;;;;14.65;48.38;100774.91;124068;1099;104264;-77
2023/05/15 02:46:07;;;;;;;16.83;4.97;;;;;;;14.63;48.04;100781.91;123740;1099;104387;-77
2023/05/15 02:48:39;;;;;;;10.77;4.80;;;;;;;14.65;48.04;100774.91;123723;1098;104310;-77
2023/05/15 02:51:08;;;;;;;13.17;5.30;;;;;;;14.69;47.95;100782.05;123964;1099;104252;-76
2023/05/15 02:53:41;;;;;;;12.67;4.53;;;;;;;14.72;48.27;100782.13;123863;1099;104274;-77
2023/05/15 02:56:10;;;;;;;13.33;5.20;;;;;;;14.77;48.41;100781.31;124057;1099;104248;-77
2023/05/15 02:58:39;;;;;;;14.30;5.10;;;;;;;14.77;48.21;100779.55;124052;1099;104360;-78
2023/05/15 03:01:08;;;;;;;9.50;4.77;;;;;;;14.79;47.84;100764.66;124137;1099;104313;-78
2023/05/15 03:03:36;;;;;;;9.13;4.53;;;;;;;14.84;48.14;100754.19;124031;1099;104381;-77
2023/05/15 03:06:05;;;;;;;12.77;5.07;;;;;;;14.85;47.95;100758.59;124080;1099;104613;-77
2023/05/15 03:08:34;;;;;;;10.67;4.53;;;;;;;14.85;47.84;100755.95;123698;1099;104686;-76
2023/05/15 03:11:02;;;;;;;13.60;4.73;;;;;;;14.88;48.40;100766.59;124062;1099;104331;-77
2023/05/15 03:13:31;;;;;;;12.10;4.75;;;;;;;14.91;47.67;100762.29;124107;1099;104345;-76
2023/05/15 03:15:59;;;;;;;39.00;9.45;;;;;;;14.97;47.74;100758.87;123922;1098;104341;-76
2023/05/15 03:18:28;;;;;;;14.73;6.03;;;;;;;15.01;48.54;100762.49;123932;1098;104257;-76
2023/05/15 03:20:57;;;;;;;17.73;5.30;;;;;;;15.05;47.58;100761.68;123750;1099;104274;-78
2023/05/15 03:23:25;;;;;;;13.83;5.33;;;;;;;15.06;48.03;100759.07;124047;1099;104222;-77
2023/05/15 03:25:54;;;;;;;19.87;5.70;;;;;;;15.09;48.23;100751.20;124020;1099;104249;-77
2023/05/15 03:28:22;;;;;;;13.80;5.00;;;;;;;15.12;48.02;100747.75;124032;1099;104241;-76
2023/05/15 03:30:51;;;;;;;12.87;5.00;;;;;;;15.14;48.44;100751.30;124019;1099;104271;-76
2023/05/15 03:33:19;;;;;;;10.90;4.67;;;;;;;15.15;48.66;100752.22;124012;1099;104705;-77
2023/05/15 03:35:49;;;;;;;14.10;4.90;;;;;;;15.18;47.81;100747.00;123891;1099;104437;-76
2023/05/15 03:38:18;;;;;;;8.90;4.90;;;;;;;15.20;48.65;100754.08;124016;1099;104293;-77
2023/05/15 03:40:47;;;;;;;8.07;4.53;;;;;;;15.20;48.54;100754.08;123947;1099;104246;-78
2023/05/15 03:43:16;;;;;;;9.03;4.53;;;;;;;15.23;47.91;100743.57;123637;1099;104354;-76
2023/05/15 03:45:44;;;;;;;12.33;4.60;;;;;;;15.27;48.36;100744.55;124092;1099;104162;-76
2023/05/15 03:48:13;;;;;;;15.00;5.43;;;;;;;15.30;47.75;100741.05;123901;1098;104347;-76
2023/05/15 03:50:43;;;;;;;12.40;4.70;;;;;;;15.33;48.38;100738.47;124079;1099;104385;-77
2023/05/15 03:53:12;;;;;;;12.87;4.97;;;;;;;15.36;48.52;100736.77;124090;1099;104268;-77
2023/05/15 03:55:40;;;;;;;10.33;4.40;;;;;;;15.39;47.97;100739.47;123753;1099;104611;-77
2023/05/15 03:58:09;;;;;;;11.23;4.83;;;;;;;15.42;48.03;100739.53;123912;1099;104344;-77
2023/05/15 04:00:37;;;;;;;10.93;4.90;;;;;;;15.46;48.25;100741.39;123902;1098;104380;-76
2023/05/15 04:03:06;;;;;;;9.33;4.27;;;;;;;15.51;48.55;100737.95;123887;1099;104277;-77
2023/05/15 04:05:34;;;;;;;8.63;4.70;;;;;;;15.56;47.62;100736.28;123918;1099;104156;-78
2023/05/15 04:08:03;;;;;;;11.13;4.53;;;;;;;15.61;47.71;100738.16;124003;1098;104319;-77
2023/05/15 04:10:32;;;;;;;10.00;4.70;;;;;;;15.66;48.09;100735.61;123930;1099;104268;-75
2023/05/15 04:13:01;;;;;;;10.63;4.87;;;;;;;15.68;47.43;100733.87;123687;1099;104326;-75
2023/05/15 04:15:30;;;;;;;10.27;4.77;;;;;;;15.69;48.13;100735.66;124000;1099;104265;-75
2023/05/15 04:17:58;;;;;;;11.03;5.30;;;;;;;15.68;47.90;100743.57;123859;1099;104396;-77
2023/05/15 04:20:27;;;;;;;11.30;5.27;;;;;;;15.71;47.33;100744.51;124134;1099;104220;-76
2023/05/15 04:22:56;;;;;;;18.67;5.37;;;;;;;15.76;47.34;100748.13;123869;1099;104319;-75
2023/05/15 04:25:25;;;;;;;14.53;5.50;;;;;;;15.77;47.35;100752.59;123947;1098;104309;-77
2023/05/15 04:27:53;;;;;;;15.97;5.63;;;;;;;15.77;47.70;100747.30;124067;1099;104242;-75
2023/05/15 04:30:22;;;;;;;12.57;5.50;;;;;;;15.77;48.24;100749.95;123891;1099;104281;-76
2023/05/15 04:32:51;;;;;;;15.50;5.63;;;;;;;15.78;47.51;100743.80;123773;1099;104264;-77
2023/05/15 04:35:19;;;;;;;17.23;5.53;;;;;;;15.86;47.40;100748.32;123885;1099;104303;-76
2023/05/15 04:37:48;;;;;;;13.37;5.37;;;;;;;15.93;47.66;100748.46;123901;1099;104409;-76
2023/05/15 04:40:16;;;;;;;11.37;5.40;;;;;;;16.02;47.66;100753.04;123880;1099;104219;-76
2023/05/15 04:42:45;;;;;;;14.13;5.77;;;;;;;16.08;48.27;100745.20;123781;1099;104267;-76
2023/05/15 04:45:14;;;;;;;15.17;5.87;;;;;;;16.15;47.35;100751.48;124062;1099;104267;-78
2023/05/15 04:47:42;;;;;;;14.10;5.67;;;;;;;16.24;47.53;100750.77;124103;1099;104265;-77
2023/05/15 04:50:11;;;;;;;10.70;5.53;;;;;;;16.33;47.45;100753.53;124354;1099;104277;-79
2023/05/15 04:52:40;;;;;;;15.57;6.10;;;;;;;16.41;47.18;100749.27;123783;1099;104271;-77
2023/05/15 04:55:20;;;;;;;11.93;5.60;;;;;;;16.50;47.29;100754.70;123721;1099;104316;-78
2023/05/15 04:57:50;;;;;;;12.60;5.70;;;;;;;16.65;47.73;100747.86;124209;1099;104301;-79
2023/05/15 05:00:19;;;;;;;13.80;5.30;;;;;;;16.82;47.47;100748.98;124592;1099;104226;-78
2023/05/15 05:02:48;;;;;;;11.77;5.90;;;;;;;17.02;47.30;100748.41;124196;1099;104459;-79
2023/05/15 05:05:16;;;;;;;13.23;5.03;;;;;;;17.18;47.28;100745.06;125097;1099;102278;-78
2023/05/15 05:07:45;;;;;;;14.90;5.17;;;;;;;17.39;46.76;100736.49;125014;1099;102301;-78
2023/05/15 05:10:14;;;;;;;15.07;6.00;;;;;;;17.63;46.96;100739.41;124471;1099;104280;-77
2023/05/15 05:12:44;;;;;;;15.07;5.47;;;;;;;17.84;46.70;100738.72;126896;1098;101956;-77
2023/05/15 05:15:13;;;;;;;12.47;5.17;;;;;;;17.98;46.41;100731.80;125968;1098;104333;-73
2023/05/15 05:17:41;;;;;;;9.27;5.10;;;;;;;18.12;46.28;100730.17;124458;1102;104223;-75
2023/05/15 05:20:12;;;;;;;11.67;4.90;;;;;;;18.25;46.13;100725.84;125063;1099;104666;-72
2023/05/15 05:22:41;;;;;;;14.70;5.00;;;;;;;18.35;45.56;100732.11;124385;1099;102178;-76
2023/05/15 05:25:12;;;;;;;14.57;4.93;;;;;;;18.39;45.38;100735.70;125184;1099;104300;-76
2023/05/15 05:27:41;;;;;;;14.40;5.23;;;;;;;18.46;45.67;100727.75;125176;1099;104239;-76
2023/05/15 05:30:11;;;;;;;10.53;5.17;;;;;;;18.55;45.16;100723.40;124506;1099;104296;-72
2023/05/15 05:32:41;;;;;;;12.50;4.83;;;;;;;18.58;44.92;100729.61;124397;1099;104328;-76
2023/05/15 05:35:10;;;;;;;17.67;5.43;;;;;;;18.60;44.88;100722.53;125033;1098;104169;-74
2023/05/15 05:37:38;;;;;;;13.80;4.87;;;;;;;18.64;44.85;100723.46;124520;1099;102643;-72
2023/05/15 05:40:10;;;;;;;15.17;5.27;;;;;;;18.66;43.94;100727.88;124622;1098;104239;-76
2023/05/15 05:42:38;;;;;;;16.33;5.20;;;;;;;18.69;44.78;100727.02;126157;1099;102660;-73
2023/05/15 05:45:09;;;;;;;11.70;4.70;;;;;;;18.75;44.56;100734.16;124739;1099;110793;-76
2023/05/15 05:47:38;;;;;;;15.97;4.87;;;;;;;18.76;44.12;100725.28;125696;1098;104233;-75
2023/05/15 05:50:09;;;;;;;17.23;4.80;;;;;;;18.77;43.99;100732.39;125023;1099;104277;-84
2023/05/15 05:52:38;;;;;;;12.57;5.20;;;;;;;18.80;44.13;100732.41;124748;1099;102559;-72
2023/05/15 05:55:08;;;;;;;12.93;4.17;;;;;;;18.79;43.51;100742.16;124876;1099;104274;-80
2023/05/15 05:57:37;;;;;;;9.47;4.40;;;;;;;18.82;42.80;100734.20;124862;1099;103670;-76
2023/05/15 06:00:11;;;;;;;11.03;4.90;;;;;;;18.85;43.39;100739.58;125094;1099;104242;-73
2023/05/15 06:02:40;;;;;;;13.03;5.70;;;;;;;18.87;43.10;100736.92;126937;1099;101836;-74
2023/05/15 06:05:09;;;;;;;18.57;5.30;;;;;;;18.89;42.82;100742.25;125629;1099;104441;-79
2023/05/15 06:07:44;;;;;;;15.07;5.60;;;;;;;18.91;43.03;100736.03;124735;1099;103438;-75
2023/05/15 06:10:18;;;;;;;17.40;6.50;;;;;;;18.95;43.17;100735.19;125027;1099;104246;-75
2023/05/15 06:12:56;;;;;;;21.90;5.90;;;;;;;18.98;43.36;100732.54;125091;1099;104331;-81
2023/05/15 06:15:29;;;;;;;16.63;5.57;;;;;;;19.02;42.55;100734.31;124812;1098;104372;-79
2023/05/15 06:18:08;;;;;;;;;;;;;;;;;;;;;
2023/05/15 06:20:47;;;;;;;8.70;4.30;;;;;;;19.09;42.73;100735.25;124573;1099;104232;-81
2023/05/15 06:23:16;;;;;;;9.13;4.10;;;;;;;19.15;41.73;100742.34;125270;1099;104198;-80
2023/05/15 06:25:44;;;;;;;8.60;4.40;;;;;;;19.21;41.31;100739.72;125078;1099;104175;-78
2023/05/15 06:28:16;;;;;;;11.30;4.00;;;;;;;19.31;41.26;100732.68;124874;1099;103315;-79
2023/05/15 06:30:47;;;;;;;6.30;3.50;;;;;;;19.42;40.34;100727.39;125016;1098;104322;-79
2023/05/15 06:33:21;;;;;;;6.43;3.47;;;;;;;19.48;40.08;100728.30;125144;1099;104171;-76
2023/05/15 06:35:50;;;;;;;7.33;3.50;;;;;;;19.53;38.96;100725.64;124779;1098;104201;-76
2023/05/15 06:38:18;;;;;;;8.53;3.70;;;;;;;19.56;39.20;100717.66;124590;1099;104239;-78
2023/05/15 06:40:47;;;;;;;6.07;3.33;;;;;;;19.66;39.75;100721.23;124864;1099;104293;-78
2023/05/15 06:43:19;;;;;;;9.17;3.53;;;;;;;19.74;38.68;100720.37;124820;1098;104261;-78
2023/05/15 06:45:52;;;;;;;12.13;3.20;;;;;;;19.88;38.63;100720.42;125004;1099;104165;-77
2023/05/15 06:48:20;;;;;;;7.00;3.43;;;;;;;20.04;38.95;100717.73;124376;1099;104347;-76
2023/05/15 06:50:49;;;;;;;6.87;3.30;;;;;;;20.16;38.09;100717.73;124930;1099;102443;-76
2023/05/15 06:53:19;;;;;;;7.70;3.37;;;;;;;20.30;38.29;100717.73;125109;1099;104245;-78
2023/05/15 06:55:49;;;;;;;6.70;3.20;;;;;;;20.42;38.11;100708.84;124785;1099;104222;-79
2023/05/15 06:58:19;;;;;;;4.40;3.00;;;;;;;20.52;36.17;100717.70;124817;1099;104261;-81
2023/05/15 07:00:48;;;;;;;7.35;3.20;;;;;;;20.61;37.11;100705.23;124442;1099;104172;-75
2023/05/15 07:03:18;;;;;;;5.63;3.40;;;;;;;20.73;36.74;100707.03;124981;1099;104144;-76
2023/05/15 07:05:48;;;;;;;9.93;3.43;;;;;;;20.89;37.16;100694.53;126193;1098;104268;-75
2023/05/15 07:08:18;;;;;;;4.97;3.20;;;;;;;21.05;34.81;100698.05;124945;1099;104411;-74
2023/05/15 07:10:48;;;;;;;5.80;3.23;;;;;;;21.21;35.22;100697.95;124888;1099;104265;-76
2023/05/15 07:13:18;;;;;;;4.70;2.90;;;;;;;21.43;35.21;100696.08;124901;1099;104166;-78
2023/05/15 07:15:47;;;;;;;4.40;3.00;;;;;;;21.60;35.98;100693.30;125004;1099;104277;-77
2023/05/15 07:18:16;;;;;;;6.93;2.90;;;;;;;21.77;35.45;100688.75;125231;1099;104244;-77
2023/05/15 07:20:48;;;;;;;5.40;3.10;;;;;;;21.98;35.75;100690.35;124580;1099;104370;-77
2023/05/15 07:23:18;;;;;;;6.87;3.63;;;;;;;22.16;35.04;100683.97;124446;1099;104653;-76
2023/05/15 07:25:49;;;;;;;4.23;3.17;;;;;;;22.37;34.90;100682.02;125036;1099;104207;-77
2023/05/15 07:28:20;;;;;;;8.33;3.20;;;;;;;22.48;34.92;100684.59;124929;1099;104307;-82
2023/05/15 07:30:57;;;;;;;5.60;3.13;;;;;;;22.53;34.35;100680.06;124894;1099;104008;-82
2023/05/15 07:33:27;;;;;;;6.20;3.20;;;;;;;22.55;34.02;100673.81;125670;1099;104235;-78
2023/05/15 07:35:56;;;;;;;8.13;3.50;;;;;;;22.51;33.77;100672.06;127110;1098;102247;-80
2023/05/15 07:38:29;;;;;;;8.43;3.40;;;;;;;22.59;34.37;100680.91;124723;1099;102827;-81
2023/05/15 07:41:05;;;;;;;10.20;3.17;;;;;;;22.71;33.19;100681.66;124923;1099;102965;-84
2023/05/15 07:43:35;;;;;;;10.95;3.55;;;;;;;22.78;33.50;100681.58;124949;1099;103801;-85
2023/05/15 07:46:07;;;;;;;9.30;3.37;;;;;;;22.95;33.01;100667.09;124984;1099;105508;-81
2023/05/15 07:48:40;;;;;;;6.17;3.30;;;;;;;23.05;32.66;100674.11;125001;1099;104176;-78
2023/05/15 07:51:12;;;;;;;4.33;3.10;;;;;;;23.20;32.40;100682.86;124931;1099;104218;-75
2023/05/15 07:53:41;;;;;;;6.80;3.27;;;;;;;23.27;33.03;100684.56;124487;1099;104261;-74
2023/05/15 07:56:11;;;;;;;7.37;3.57;;;;;;;23.32;32.20;100680.02;125032;1099;103704;-78
2023/05/15 07:58:46;;;;;;;7.40;3.10;;;;;;;23.42;32.35;100672.73;124509;1099;104242;-81
2023/05/15 08:01:19;;;;;;;4.77;3.20;;;;;;;23.50;31.28;100668.17;124977;1099;104051;-77
2023/05/15 08:03:48;;;;;;;6.27;3.40;;;;;;;23.59;31.45;100668.03;125007;1099;102248;-76
2023/05/15 08:06:19;;;;;;;4.47;3.00;;;;;;;23.69;31.07;100672.31;125535;1098;102407;-77
2023/05/15 08:08:51;;;;;;;6.33;3.13;;;;;;;23.73;30.51;100661.55;125472;1099;104255;-82
2023/05/15 08:11:26;;;;;;;6.50;3.60;;;;;;;23.78;29.79;100659.67;124867;1099;102703;-80
2023/05/15 08:13:58;;;;;;;6.03;3.33;;;;;;;23.84;29.68;100662.28;125003;1099;104248;-78
2023/05/15 08:16:27;;;;;;;11.00;3.17;;;;;;;23.95;28.85;100659.42;124631;1099;104335;-79
2023/05/15 08:19:00;;;;;;;5.67;3.03;;;;;;;23.99;28.73;100650.44;125110;1098;104238;-77
2023/05/15 08:21:29;;;;;;;9.25;3.55;;;;;;;24.08;28.21;100657.44;125283;1098;104195;-75
2023/05/15 08:23:59;;;;;;;6.73;2.97;;;;;;;24.09;28.99;100648.47;125052;1099;104245;-76
2023/05/15 08:26:30;;;;;;;8.50;3.63;;;;;;;24.24;28.77;100640.16;124597;1099;104284;-79
2023/05/15 08:29:00;;;;;;;8.83;3.53;;;;;;;24.26;28.05;100634.76;125007;1099;104211;-81
2023/05/15 08:31:30;;;;;;;7.10;3.43;;;;;;;24.31;28.23;100633.77;125102;1099;104291;-77
2023/05/15 08:34:08;;;;;;;6.87;3.17;;;;;;;24.36;27.79;100626.52;125169;1098;103834;-78
2023/05/15 08:37:17;;;;;;;6.53;2.97;;;;;;;24.41;28.05;100621.94;125088;1098;104224;-80
2023/05/15 08:39:46;;;;;;;5.40;3.20;;;;;;;24.59;27.58;100611.81;125090;1099;104261;-74
2023/05/15 08:42:23;;;;;;;7.57;3.53;;;;;;;24.69;27.77;100621.41;124681;1099;102952;-74
2023/05/15 08:44:54;;;;;;;8.63;3.03;;;;;;;24.78;27.60;100630.17;124924;1099;101921;-79
2023/05/15 08:47:23;;;;;;;7.50;3.57;;;;;;;24.72;28.02;100618.67;124882;1099;104178;-76
2023/05/15 08:49:59;;;;;;;5.77;2.80;;;;;;;24.77;27.41;100621.25;124915;1099;104220;-76
2023/05/15 08:52:29;;;;;;;6.00;2.93;;;;;;;24.73;27.15;100624.94;124853;1098;102450;-76
2023/05/15 08:54:59;;;;;;;7.70;3.30;;;;;;;24.83;27.64;100620.25;124861;1099;104243;-77
2023/05/15 08:57:30;;;;;;;9.77;3.53;;;;;;;24.93;27.24;100619.12;125066;1098;104226;-75
2023/05/15 09:00:03;;;;;;;4.50;3.20;;;;;;;24.86;26.82;100626.43;125137;1099;104313;-78
2023/05/15 09:02:35;;;;;;;6.67;3.13;;;;;;;24.94;26.72;100611.03;124560;1099;104380;-77
2023/05/15 09:05:12;;;;;;;7.93;3.20;;;;;;;24.92;26.80;100609.33;124975;1099;104274;-74
2023/05/15 09:07:43;;;;;;;4.97;2.93;;;;;;;24.97;26.25;100607.41;126449;1098;101773;-79
2023/05/15 09:10:13;;;;;;;4.67;2.93;;;;;;;25.01;26.35;100603.75;125111;1099;102319;-74
2023/05/15 09:12:47;;;;;;;5.03;3.13;;;;;;;25.10;26.89;100603.55;125086;1099;104187;-78
2023/05/15 09:15:21;;;;;;;7.13;2.80;;;;;;;25.05;26.54;100594.69;125062;1099;104235;-76
2023/05/15 09:17:53;;;;;;;5.60;3.27;;;;;;;25.06;27.10;100600.96;125039;1099;103568;-77
2023/05/15 09:20:33;;;;;;;8.10;2.95;;;;;;;25.02;26.47;100607.31;125109;1099;104182;-75
2023/05/15 09:23:04;;;;;;;5.30;2.90;;;;;;;25.05;26.76;100596.50;125124;1098;103391;-75
2023/05/15 09:25:40;;;;;;;7.33;3.10;;;;;;;25.14;26.54;100600.79;124958;1099;104166;-77
2023/05/15 09:28:10;;;;;;;6.93;3.30;;;;;;;25.20;26.15;100603.34;125001;1099;104191;-75
2023/05/15 09:30:42;;;;;;;12.00;3.33;;;;;;;25.17;25.60;100611.46;125002;1099;105224;-77
2023/05/15 09:33:12;;;;;;;4.63;3.07;;;;;;;25.14;25.89;100598.11;124657;1099;104277;-74
2023/05/15 09:35:44;;;;;;;9.50;3.17;;;;;;;25.16;25.56;100607.00;125095;1099;104197;-78
2023/05/15 09:38:21;;;;;;;5.03;3.00;;;;;;;25.11;25.61;100609.78;125016;1099;104389;-76
2023/05/15 09:41:02;;;;;;;8.97;3.10;;;;;;;25.16;25.37;100607.87;124400;1099;104191;-76
2023/05/15 09:43:34;;;;;;;5.27;2.80;;;;;;;25.04;25.10;100609.05;124792;1099;104290;-78
2023/05/15 09:46:03;;;;;;;6.83;2.80;;;;;;;24.97;24.96;100599.36;125034;1099;102317;-75
2023/05/15 09:48:35;;;;;;;4.97;2.80;;;;;;;24.96;24.75;100600.27;125070;1099;104162;-74
2023/05/15 09:51:15;;;;;;;5.73;3.13;;;;;;;24.96;25.26;100594.02;124703;1099;103334;-77
2023/05/15 09:53:50;;;;;;;9.73;3.10;;;;;;;24.71;24.52;100600.83;126684;1098;102562;-82
2023/05/15 09:56:22;;;;;;;6.80;3.10;;;;;;;24.66;25.20;100594.65;126845;1099;101894;-83
2023/05/15 09:58:54;;;;;;;4.23;3.03;;;;;;;24.65;24.74;100582.17;126883;1098;102479;-79
2023/05/15 10:01:30;;;;;;;6.97;3.10;;;;;;;24.80;24.75;100578.25;126947;1098;102779;-80
2023/05/15 10:04:04;;;;;;;4.93;2.90;;;;;;;24.87;24.68;100562.89;126261;1099;102807;-77
2023/05/15 10:06:36;;;;;;;7.77;3.00;;;;;;;24.92;24.79;100585.16;126084;1099;102450;-78
2023/05/15 10:09:10;;;;;;;6.20;2.87;;;;;;;24.93;25.10;100566.34;126541;1098;101865;-78
2023/05/15 10:11:42;;;;;;;6.00;2.97;;;;;;;24.98;25.22;100560.88;126525;1098;101933;-79
2023/05/15 10:14:18;;;;;;;5.83;3.17;;;;;;;24.83;25.01;100564.77;126439;1098;102783;-76
2023/05/15 10:16:47;;;;;;;6.30;2.87;;;;;;;24.85;25.43;100562.05;126481;1098;103230;-78
2023/05/15 10:19:19;;;;;;;5.47;3.07;;;;;;;24.93;25.80;100560.07;125955;1098;104325;-74
2023/05/15 10:21:51;;;;;;;6.23;3.20;;;;;;;24.98;25.23;100565.34;125312;1099;104159;-76
2023/05/15 10:24:21;;;;;;;3.00;2.67;;;;;;;25.01;25.35;100554.53;117084;1098;10001258;-79
2023/05/15 10:26:57;;;;;;;7.93;3.10;;;;;;;25.11;25.46;100554.28;125646;1099;103312;-81
2023/05/15 10:29:59;;;;;;;3.97;3.03;;;;;;;25.17;25.62;100565.81;125782;1099;102694;-77
2023/05/15 10:36:16;;;;;;;9.35;3.10;;;;;;;25.32;25.30;100560.08;124978;1102;103001;-80
2023/05/15 10:38:53;;;;;;;11.00;3.43;;;;;;;25.27;25.48;100567.34;125102;1102;103482;-82
2023/05/15 10:42:02;;;;;;;;;;;;;;;;;;;;;
2023/05/15 10:45:12;;;;;;;6.40;3.33;;;;;;;25.29;25.28;100554.78;124911;1102;104252;-83
2023/05/15 10:48:11;;;;;;;8.57;3.67;;;;;;;25.32;25.48;100570.82;124623;1102;104187;-76
2023/05/15 10:51:19;;;;;;;;;;;;;;;;;;;;;
2023/05/15 10:54:11;;;;;;;7.47;3.43;;;;;;;25.38;25.57;100573.36;125436;1099;104342;-77
2023/05/15 10:57:13;;;;;;;4.60;3.03;;;;;;;25.52;26.12;100556.03;125896;1098;104733;-79
2023/05/15 11:00:00;;;;;;;8.30;3.10;;;;;;;25.58;26.16;100559.44;125223;1099;102206;-74
2023/05/15 11:02:41;;;;;;;7.20;3.30;;;;;;;25.63;26.09;100559.31;125254;1099;104296;-74
2023/05/15 11:05:44;;;;;;;5.30;3.13;;;;;;;25.63;26.60;100556.63;125165;1099;102905;-79
2023/05/15 11:12:37;;;;;;;7.10;3.23;;;;;;;25.47;26.19;100562.39;125498;1099;120225;-78
2023/05/15 11:15:20;;;;;;;7.50;3.52;;;;;;;25.49;26.57;100554.30;125185;1099;104160;-76
2023/05/15 11:18:04;;;;;;;6.43;3.27;;;;;;;25.59;26.61;100560.34;124810;1102;102969;-75
2023/05/15 11:20:39;;;;;;;7.23;3.40;;;;;;;25.72;26.32;100556.39;125387;1099;104259;-75
2023/05/15 11:23:13;;;;;;;4.93;3.10;;;;;;;25.94;26.14;100564.76;125387;1098;102482;-83
2023/05/15 11:25:53;;;;;;;5.77;3.20;;;;;;;26.04;26.24;100562.76;125222;1099;103551;-83
2023/05/15 11:28:40;;;;;;;4.97;3.40;;;;;;;26.16;26.21;100557.05;125275;1099;104319;-74
2023/05/15 11:31:11;;;;;;;9.40;3.80;;;;;;;26.31;26.33;100563.78;125378;1099;104299;-74
2023/05/15 11:33:41;;;;;;;5.80;3.40;;;;;;;26.31;26.14;100555.70;125038;1098;104239;-77
2023/05/15 11:36:29;;;;;;;6.03;3.13;;;;;;;26.32;25.74;100553.92;124996;1099;104273;-82
2023/05/15 11:39:28;;;;;;;5.27;3.23;;;;;;;26.24;26.01;100551.45;125081;1099;104275;-80
2023/05/15 11:42:29;;;;;;;;;;;;;;;;;;;;;